Terminal Aerodrome Forecast
Issued by NWS Bismarck, ND

Home | Current Version | Previous Version | Text Only | Print | Product List | Glossary On
Versions: 1 2 3 4 5 6 7 8 9 10 11 12 13 14
000
FTUS43 KBIS 291134
TAFISN
TAF
KISN 291134Z 2912/3012 02006KT P6SM FEW250
     FM291700 04007KT P6SM SKC
     FM292100 08006KT P6SM SKC
     FM300400 10005KT P6SM SKC=

USA.gov is the U.S. government's official web portal to all federal, state and local government web resources and services.